sensor_id;sensor_type;location;lat;lon;timestamp;pressure;altitude;pressure_sealevel;temperature;humidity
79203;BME280;68630;42.748;23.278;2024-03-02T00:01:59;94960.98;;;7.16;82.03
79203;BME280;68630;42.748;23.278;2024-03-02T00:04:27;94961.12;;;7.20;81.23
79203;BME280;68630;42.748;23.278;2024-03-02T00:06:54;94970.97;;;7.24;81.61
79203;BME280;68630;42.748;23.278;2024-03-02T00:09:25;94965.17;;;7.36;80.57
79203;BME280;68630;42.748;23.278;2024-03-02T00:11:52;94970.94;;;7.41;80.30
79203;BME280;68630;42.748;23.278;2024-03-02T00:14:23;94968.44;;;7.34;80.63
79203;BME280;68630;42.748;23.278;2024-03-02T00:16:52;94959.38;;;7.36;80.50
79203;BME280;68630;42.748;23.278;2024-03-02T00:19:23;94970.47;;;7.36;80.21
79203;BME280;68630;42.748;23.278;2024-03-02T00:21:54;94969.98;;;7.36;80.09
79203;BME280;68630;42.748;23.278;2024-03-02T00:24:37;94972.16;;;7.31;80.12
79203;BME280;68630;42.748;23.278;2024-03-02T00:27:05;94968.88;;;7.44;79.35
79203;BME280;68630;42.748;23.278;2024-03-02T00:29:37;94972.48;;;7.49;79.37
79203;BME280;68630;42.748;23.278;2024-03-02T00:32:15;94968.98;;;7.54;79.22
79203;BME280;68630;42.748;23.278;2024-03-02T00:34:41;94918.98;;;7.28;78.98
79203;BME280;68630;42.748;23.278;2024-03-02T00:37:08;94959.68;;;7.60;78.88
79203;BME280;68630;42.748;23.278;2024-03-02T00:39:37;94966.66;;;7.55;79.17
79203;BME280;68630;42.748;23.278;2024-03-02T00:42:08;94961.47;;;7.65;79.06
79203;BME280;68630;42.748;23.278;2024-03-02T00:44:36;94960.02;;;7.66;78.72
79203;BME280;68630;42.748;23.278;2024-03-02T00:47:04;94955.89;;;7.74;78.33
79203;BME280;68630;42.748;23.278;2024-03-02T00:49:33;94946.58;;;7.79;78.25
79203;BME280;68630;42.748;23.278;2024-03-02T00:52:01;94949.59;;;7.48;80.03
79203;BME280;68630;42.748;23.278;2024-03-02T00:54:30;94957.48;;;7.65;79.10
79203;BME280;68630;42.748;23.278;2024-03-02T00:56:59;94954.56;;;7.74;78.51
79203;BME280;68630;42.748;23.278;2024-03-02T00:59:29;94951.55;;;7.73;78.50
79203;BME280;68630;42.748;23.278;2024-03-02T01:01:57;94940.36;;;7.75;78.17
79203;BME280;68630;42.748;23.278;2024-03-02T01:04:25;94945.78;;;7.73;78.40
79203;BME280;68630;42.748;23.278;2024-03-02T01:06:52;94939.98;;;7.74;78.37
79203;BME280;68630;42.748;23.278;2024-03-02T01:09:20;94948.55;;;7.72;78.37
79203;BME280;68630;42.748;23.278;2024-03-02T01:11:49;94948.19;;;7.71;78.73
79203;BME280;68630;42.748;23.278;2024-03-02T01:14:16;94946.40;;;7.65;79.03
79203;BME280;68630;42.748;23.278;2024-03-02T01:16:46;94946.65;;;7.68;79.02
79203;BME280;68630;42.748;23.278;2024-03-02T01:19:15;94943.41;;;7.64;79.07
79203;BME280;68630;42.748;23.278;2024-03-02T01:21:43;94943.29;;;7.60;79.36
79203;BME280;68630;42.748;23.278;2024-03-02T01:24:11;94924.16;;;7.57;79.40
79203;BME280;68630;42.748;23.278;2024-03-02T01:26:41;94921.89;;;7.52;79.90
79203;BME280;68630;42.748;23.278;2024-03-02T01:29:09;94922.99;;;7.49;79.80
79203;BME280;68630;42.748;23.278;2024-03-02T01:31:39;94923.83;;;7.50;80.01
79203;BME280;68630;42.748;23.278;2024-03-02T01:34:09;94929.00;;;7.52;79.76
79203;BME280;68630;42.748;23.278;2024-03-02T01:36:36;94925.61;;;7.55;79.69
79203;BME280;68630;42.748;23.278;2024-03-02T01:39:05;94918.62;;;7.60;79.49
79203;BME280;68630;42.748;23.278;2024-03-02T01:41:34;94916.34;;;7.61;79.39
79203;BME280;68630;42.748;23.278;2024-03-02T01:44:02;94914.86;;;7.62;79.33
79203;BME280;68630;42.748;23.278;2024-03-02T01:46:31;94916.67;;;7.62;79.33
79203;BME280;68630;42.748;23.278;2024-03-02T01:49:01;94919.70;;;7.57;79.74
79203;BME280;68630;42.748;23.278;2024-03-02T01:51:30;94914.55;;;7.50;80.23
79203;BME280;68630;42.748;23.278;2024-03-02T01:53:58;94905.53;;;7.47;80.46
79203;BME280;68630;42.748;23.278;2024-03-02T01:56:26;94900.52;;;7.38;80.89
79203;BME280;68630;42.748;23.278;2024-03-02T01:58:55;94899.47;;;7.35;81.59
79203;BME280;68630;42.748;23.278;2024-03-02T02:01:24;94902.11;;;7.29;81.87
79203;BME280;68630;42.748;23.278;2024-03-02T02:04:15;94899.12;;;7.23;82.53
79203;BME280;68630;42.748;23.278;2024-03-02T02:06:44;94907.09;;;7.17;82.84
79203;BME280;68630;42.748;23.278;2024-03-02T02:09:13;94908.04;;;7.16;83.09
79203;BME280;68630;42.748;23.278;2024-03-02T02:11:41;94907.97;;;7.06;83.76
79203;BME280;68630;42.748;23.278;2024-03-02T02:14:09;94832.16;;;6.67;83.20
79203;BME280;68630;42.748;23.278;2024-03-02T02:16:37;94909.88;;;7.10;83.50
79203;BME280;68630;42.748;23.278;2024-03-02T02:19:05;94913.72;;;7.06;83.83
79203;BME280;68630;42.748;23.278;2024-03-02T02:21:32;94905.79;;;7.11;83.70
79203;BME280;68630;42.748;23.278;2024-03-02T02:24:11;94899.77;;;7.15;83.28
79203;BME280;68630;42.748;23.278;2024-03-02T02:26:41;94914.33;;;7.04;83.81
79203;BME280;68630;42.748;23.278;2024-03-02T02:29:09;94910.35;;;7.15;83.46
79203;BME280;68630;42.748;23.278;2024-03-02T02:31:40;94906.52;;;7.08;83.62
79203;BME280;68630;42.748;23.278;2024-03-02T02:34:07;94898.31;;;7.17;82.82
79203;BME280;68630;42.748;23.278;2024-03-02T02:36:38;94902.28;;;7.11;83.30
79203;BME280;68630;42.748;23.278;2024-03-02T02:39:09;94904.59;;;7.10;83.31
79203;BME280;68630;42.748;23.278;2024-03-02T02:41:37;94906.97;;;7.19;83.22
79203;BME280;68630;42.748;23.278;2024-03-02T02:44:05;94915.35;;;7.29;82.15
79203;BME280;68630;42.748;23.278;2024-03-02T02:46:32;94910.77;;;7.31;82.57
79203;BME280;68630;42.748;23.278;2024-03-02T02:49:00;94915.59;;;7.32;82.95
79203;BME280;68630;42.748;23.278;2024-03-02T02:51:27;94915.66;;;7.42;82.56
79203;BME280;68630;42.748;23.278;2024-03-02T02:53:55;94904.17;;;7.58;81.48
79203;BME280;68630;42.748;23.278;2024-03-02T02:56:22;94915.59;;;7.64;81.34
79203;BME280;68630;42.748;23.278;2024-03-02T02:58:53;94915.14;;;7.59;81.47
79203;BME280;68630;42.748;23.278;2024-03-02T03:01:20;94907.28;;;7.63;81.04
79203;BME280;68630;42.748;23.278;2024-03-02T03:03:48;94914.67;;;7.54;80.97
79203;BME280;68630;42.748;23.278;2024-03-02T03:06:16;94915.72;;;7.57;80.37
79203;BME280;68630;42.748;23.278;2024-03-02T03:08:45;94923.33;;;7.56;79.91
79203;BME280;68630;42.748;23.278;2024-03-02T03:11:12;94925.64;;;7.49;80.50
79203;BME280;68630;42.748;23.278;2024-03-02T03:13:40;94922.99;;;7.49;80.92
79203;BME280;68630;42.748;23.278;2024-03-02T03:16:08;94923.11;;;7.48;80.89
79203;BME280;68630;42.748;23.278;2024-03-02T03:18:36;94918.87;;;7.57;80.58
79203;BME280;68630;42.748;23.278;2024-03-02T03:21:04;94918.13;;;7.66;80.09
79203;BME280;68630;42.748;23.278;2024-03-02T03:23:32;94918.13;;;7.66;79.73
79203;BME280;68630;42.748;23.278;2024-03-02T03:25:59;94915.59;;;7.64;79.85
79203;BME280;68630;42.748;23.278;2024-03-02T03:28:27;94905.58;;;7.68;79.72
79203;BME280;68630;42.748;23.278;2024-03-02T03:34:10;94918.98;;;7.61;79.73
79203;BME280;68630;42.748;23.278;2024-03-02T03:36:40;94911.50;;;7.60;79.61
79203;BME280;68630;42.748;23.278;2024-03-02T03:39:07;94923.58;;;7.53;80.76
79203;BME280;68630;42.748;23.278;2024-03-02T03:41:36;94919.57;;;7.59;80.57
79203;BME280;68630;42.748;23.278;2024-03-02T03:44:04;94918.77;;;7.47;81.16
79203;BME280;68630;42.748;23.278;2024-03-02T03:46:31;94921.08;;;7.46;81.19
79203;BME280;68630;42.748;23.278;2024-03-02T03:48:59;94916.00;;;7.48;81.16
79203;BME280;68630;42.748;23.278;2024-03-02T03:51:26;94920.56;;;7.52;81.00
79203;BME280;68630;42.748;23.278;2024-03-02T03:53:54;94921.77;;;7.54;80.89
79203;BME280;68630;42.748;23.278;2024-03-02T03:56:22;94919.70;;;7.57;80.92
79203;BME280;68630;42.748;23.278;2024-03-02T03:58:49;94909.72;;;7.55;80.95
79203;BME280;68630;42.748;23.278;2024-03-02T04:01:16;94915.48;;;7.60;80.67
79203;BME280;68630;42.748;23.278;2024-03-02T04:03:45;94910.34;;;7.53;80.83
79203;BME280;68630;42.748;23.278;2024-03-02T04:06:13;94909.96;;;7.25;83.00
79203;BME280;68630;42.748;23.278;2024-03-02T04:08:42;94917.27;;;7.39;82.10
79203;BME280;68630;42.748;23.278;2024-03-02T04:11:10;94909.91;;;7.37;82.36
79203;BME280;68630;42.748;23.278;2024-03-02T04:13:38;94904.61;;;7.37;82.74
79203;BME280;68630;42.748;23.278;2024-03-02T04:16:05;94911.97;;;7.39;83.17
79203;BME280;68630;42.748;23.278;2024-03-02T04:18:33;94910.64;;;7.39;83.52
79203;BME280;68630;42.748;23.278;2024-03-02T04:21:01;94907.66;;;7.32;84.21
79203;BME280;68630;42.748;23.278;2024-03-02T04:23:29;94914.22;;;7.43;84.00
79203;BME280;68630;42.748;23.278;2024-03-02T04:25:59;94913.38;;;7.43;83.62
79203;BME280;68630;42.748;23.278;2024-03-02T04:28:27;94912.43;;;7.44;83.46
79203;BME280;68630;42.748;23.278;2024-03-02T04:30:54;94914.49;;;7.35;84.24
79203;BME280;68630;42.748;23.278;2024-03-02T04:33:22;94914.95;;;7.40;84.35
79203;BME280;68630;42.748;23.278;2024-03-02T04:35:49;94911.11;;;7.38;85.05
79203;BME280;68630;42.748;23.278;2024-03-02T04:38:18;94921.82;;;7.42;84.57
79203;BME280;68630;42.748;23.278;2024-03-02T04:40:45;94921.33;;;7.43;84.55
79203;BME280;68630;42.748;23.278;2024-03-02T04:43:13;94914.49;;;7.40;84.39
79203;BME280;68630;42.748;23.278;2024-03-02T04:45:42;94921.48;;;7.36;84.32
79203;BME280;68630;42.748;23.278;2024-03-02T04:48:10;94921.95;;;7.41;84.45
79203;BME280;68630;42.748;23.278;2024-03-02T04:50:37;94929.67;;;7.33;84.45
79203;BME280;68630;42.748;23.278;2024-03-02T04:53:06;94918.61;;;7.27;84.61
79203;BME280;68630;42.748;23.278;2024-03-02T04:55:34;94926.67;;;7.26;85.46
79203;BME280;68630;42.748;23.278;2024-03-02T04:58:03;94922.95;;;7.28;85.56
79203;BME280;68630;42.748;23.278;2024-03-02T05:00:40;94922.36;;;7.25;85.81
79203;BME280;68630;42.748;23.278;2024-03-02T05:03:09;94932.09;;;7.24;85.69
79203;BME280;68630;42.748;23.278;2024-03-02T05:05:38;94929.45;;;7.24;86.44
79203;BME280;68630;42.748;23.278;2024-03-02T05:08:06;94936.78;;;7.32;86.38
79203;BME280;68630;42.748;23.278;2024-03-02T05:10:33;94942.31;;;7.29;86.26
79203;BME280;68630;42.748;23.278;2024-03-02T05:13:02;94877.21;;;6.94;86.39
79203;BME280;68630;42.748;23.278;2024-03-02T05:15:30;94940.50;;;7.29;86.31
79203;BME280;68630;42.748;23.278;2024-03-02T05:17:58;94934.25;;;7.30;86.51
79203;BME280;68630;42.748;23.278;2024-03-02T05:20:26;94941.14;;;7.22;86.92
79203;BME280;68630;42.748;23.278;2024-03-02T05:26:08;94950.28;;;7.23;87.26
79203;BME280;68630;42.748;23.278;2024-03-02T05:28:37;94951.70;;;7.27;87.27
79203;BME280;68630;42.748;23.278;2024-03-02T05:31:04;94949.91;;;7.22;87.18
79203;BME280;68630;42.748;23.278;2024-03-02T05:33:33;94955.35;;;7.15;88.14
79203;BME280;68630;42.748;23.278;2024-03-02T05:36:00;94959.79;;;7.20;87.78
79203;BME280;68630;42.748;23.278;2024-03-02T05:38:28;94957.27;;;7.19;87.41
79203;BME280;68630;42.748;23.278;2024-03-02T05:40:56;94958.70;;;7.28;87.55
79203;BME280;68630;42.748;23.278;2024-03-02T05:43:25;94963.63;;;7.27;87.25
79203;BME280;68630;42.748;23.278;2024-03-02T05:46:05;94960.27;;;7.25;87.36
79203;BME280;68630;42.748;23.278;2024-03-02T05:48:35;94966.75;;;7.21;87.66
79203;BME280;68630;42.748;23.278;2024-03-02T05:51:01;94974.92;;;7.29;87.77
79203;BME280;68630;42.748;23.278;2024-03-02T05:53:31;94972.17;;;7.25;88.07
79203;BME280;68630;42.748;23.278;2024-03-02T05:56:27;94971.66;;;7.31;87.75
79203;BME280;68630;42.748;23.278;2024-03-02T05:58:54;94979.15;;;7.32;87.75
79203;BME280;68630;42.748;23.278;2024-03-02T06:02:09;94976.01;;;7.33;87.13
79203;BME280;68630;42.748;23.278;2024-03-02T06:04:37;94912.78;;;6.96;87.23
79203;BME280;68630;42.748;23.278;2024-03-02T06:07:04;94978.28;;;7.31;87.31
79203;BME280;68630;42.748;23.278;2024-03-02T06:09:38;94976.62;;;7.30;87.40
79203;BME280;68630;42.748;23.278;2024-03-02T06:12:10;94975.64;;;7.31;87.65
79203;BME280;68630;42.748;23.278;2024-03-02T06:14:37;94980.22;;;7.29;88.05
79203;BME280;68630;42.748;23.278;2024-03-02T06:17:04;94974.19;;;7.33;88.09
79203;BME280;68630;42.748;23.278;2024-03-02T06:19:36;94974.06;;;7.35;88.04
79203;BME280;68630;42.748;23.278;2024-03-02T06:22:05;94980.81;;;7.33;88.26
79203;BME280;68630;42.748;23.278;2024-03-02T06:24:36;94983.12;;;7.32;88.16
79203;BME280;68630;42.748;23.278;2024-03-02T06:27:10;94978.63;;;7.38;88.28
79203;BME280;68630;42.748;23.278;2024-03-02T06:29:44;94982.72;;;7.37;88.04
79203;BME280;68630;42.748;23.278;2024-03-02T06:32:13;94978.06;;;7.29;88.13
79203;BME280;68630;42.748;23.278;2024-03-02T06:34:46;94988.88;;;7.31;88.61
79203;BME280;68630;42.748;23.278;2024-03-02T06:37:23;94982.75;;;7.31;88.54
79203;BME280;68630;42.748;23.278;2024-03-02T06:40:03;94985.52;;;7.29;88.42
79203;BME280;68630;42.748;23.278;2024-03-02T06:42:48;94979.65;;;7.20;88.67
79203;BME280;68630;42.748;23.278;2024-03-02T06:45:16;94991.78;;;7.23;88.63
79203;BME280;68630;42.748;23.278;2024-03-02T06:47:50;94991.56;;;7.20;88.44
79203;BME280;68630;42.748;23.278;2024-03-02T06:50:24;94990.11;;;7.16;88.87
79203;BME280;68630;42.748;23.278;2024-03-02T06:52:51;94996.97;;;7.19;88.88
79203;BME280;68630;42.748;23.278;2024-03-02T06:55:22;94996.02;;;7.20;88.72
79203;BME280;68630;42.748;23.278;2024-03-02T06:57:57;94998.28;;;7.24;88.83
79203;BME280;68630;42.748;23.278;2024-03-02T07:00:36;94998.28;;;7.24;89.04
79203;BME280;68630;42.748;23.278;2024-03-02T07:03:05;94906.58;;;6.63;89.41
79203;BME280;68630;42.748;23.278;2024-03-02T07:05:43;94999.13;;;7.19;89.22
79203;BME280;68630;42.748;23.278;2024-03-02T07:08:16;94916.45;;;6.72;89.22
79203;BME280;68630;42.748;23.278;2024-03-02T07:10:49;94999.98;;;7.14;88.97
79203;BME280;68630;42.748;23.278;2024-03-02T07:13:22;95006.94;;;7.26;89.08
79203;BME280;68630;42.748;23.278;2024-03-02T07:15:52;95002.72;;;7.29;88.78
79203;BME280;68630;42.748;23.278;2024-03-02T07:18:41;95009.48;;;7.34;88.75
79203;BME280;68630;42.748;23.278;2024-03-02T07:21:11;95009.81;;;7.35;88.60
79203;BME280;68630;42.748;23.278;2024-03-02T07:23:46;95012.38;;;7.13;89.12
79203;BME280;68630;42.748;23.278;2024-03-02T07:26:14;95008.63;;;7.16;89.40
79203;BME280;68630;42.748;23.278;2024-03-02T07:28:42;95012.36;;;7.30;88.54
79203;BME280;68630;42.748;23.278;2024-03-02T07:31:15;95017.40;;;7.39;88.41
79203;BME280;68630;42.748;23.278;2024-03-02T07:33:44;95017.03;;;7.38;87.65
79203;BME280;68630;42.748;23.278;2024-03-02T07:36:13;95018.47;;;7.37;87.86
79203;BME280;68630;42.748;23.278;2024-03-02T07:38:41;95018.61;;;7.41;88.37
79203;BME280;68630;42.748;23.278;2024-03-02T07:41:11;95013.64;;;7.42;88.75
79203;BME280;68630;42.748;23.278;2024-03-02T07:43:39;95017.99;;;7.43;88.92
79203;BME280;68630;42.748;23.278;2024-03-02T07:46:12;95015.72;;;7.44;88.70
79203;BME280;68630;42.748;23.278;2024-03-02T07:48:40;95017.38;;;7.45;88.57
79203;BME280;68630;42.748;23.278;2024-03-02T07:51:10;95025.33;;;7.45;88.40
79203;BME280;68630;42.748;23.278;2024-03-02T07:53:40;95021.02;;;7.44;88.48
79203;BME280;68630;42.748;23.278;2024-03-02T07:56:13;95018.24;;;7.45;88.51
79203;BME280;68630;42.748;23.278;2024-03-02T07:58:42;95028.84;;;7.45;88.37
79203;BME280;68630;42.748;23.278;2024-03-02T08:01:11;95025.10;;;7.42;88.89
79203;BME280;68630;42.748;23.278;2024-03-02T08:03:39;95023.54;;;7.45;88.53
79203;BME280;68630;42.748;23.278;2024-03-02T08:06:06;95027.02;;;7.46;88.74
79203;BME280;68630;42.748;23.278;2024-03-02T08:08:34;95035.77;;;7.52;88.64
79203;BME280;68630;42.748;23.278;2024-03-02T08:11:03;95031.10;;;7.56;88.48
79203;BME280;68630;42.748;23.278;2024-03-02T08:13:31;94985.91;;;7.25;88.16
79203;BME280;68630;42.748;23.278;2024-03-02T08:15:58;95030.62;;;7.45;88.34
79203;BME280;68630;42.748;23.278;2024-03-02T08:18:27;95037.84;;;7.48;89.25
79203;BME280;68630;42.748;23.278;2024-03-02T08:20:55;95031.10;;;7.56;88.56
79203;BME280;68630;42.748;23.278;2024-03-02T08:23:23;94975.44;;;7.23;88.71
79203;BME280;68630;42.748;23.278;2024-03-02T08:25:54;95028.91;;;7.55;87.64
79203;BME280;68630;42.748;23.278;2024-03-02T08:28:19;95032.05;;;7.55;88.76
79203;BME280;68630;42.748;23.278;2024-03-02T08:30:47;95032.88;;;7.66;88.33
79203;BME280;68630;42.748;23.278;2024-03-02T08:33:14;95041.91;;;7.69;87.63
79203;BME280;68630;42.748;23.278;2024-03-02T08:35:42;95024.92;;;7.66;87.62
79203;BME280;68630;42.748;23.278;2024-03-02T08:38:10;95029.61;;;7.68;88.20
79203;BME280;68630;42.748;23.278;2024-03-02T08:40:40;95024.50;;;7.82;87.81
79203;BME280;68630;42.748;23.278;2024-03-02T08:43:09;95029.95;;;7.75;87.50
79203;BME280;68630;42.748;23.278;2024-03-02T08:45:36;95029.71;;;8.05;87.64
79203;BME280;68630;42.748;23.278;2024-03-02T08:48:10;95024.91;;;8.04;88.58
79203;BME280;68630;42.748;23.278;2024-03-02T08:50:39;95035.19;;;8.19;86.09
79203;BME280;68630;42.748;23.278;2024-03-02T08:53:06;95035.14;;;8.30;85.94
79203;BME280;68630;42.748;23.278;2024-03-02T08:55:39;95034.71;;;8.52;84.50
79203;BME280;68630;42.748;23.278;2024-03-02T08:58:10;95032.56;;;8.46;83.28
79203;BME280;68630;42.748;23.278;2024-03-02T09:00:38;95035.61;;;8.62;83.16
79203;BME280;68630;42.748;23.278;2024-03-02T09:03:14;95034.67;;;8.57;83.07
79203;BME280;68630;42.748;23.278;2024-03-02T09:05:36;95041.00;;;8.66;82.99
79203;BME280;68630;42.748;23.278;2024-03-02T09:08:33;95037.04;;;8.81;82.37
79203;BME280;68630;42.748;23.278;2024-03-02T09:10:47;95040.30;;;8.64;82.46
79203;BME280;68630;42.748;23.278;2024-03-02T09:13:16;95039.44;;;8.85;82.29
79203;BME280;68630;42.748;23.278;2024-03-02T09:15:45;95046.59;;;8.94;81.53
79203;BME280;68630;42.748;23.278;2024-03-02T09:18:14;95042.80;;;9.17;80.70
79203;BME280;68630;42.748;23.278;2024-03-02T09:20:42;95044.77;;;9.25;79.42
79203;BME280;68630;42.748;23.278;2024-03-02T09:23:09;95050.25;;;9.24;80.23
79203;BME280;68630;42.748;23.278;2024-03-02T09:25:38;95049.87;;;9.38;79.26
79203;BME280;68630;42.748;23.278;2024-03-02T09:28:06;95049.16;;;9.36;79.78
79203;BME280;68630;42.748;23.278;2024-03-02T09:30:34;95057.77;;;9.34;79.46
79203;BME280;68630;42.748;23.278;2024-03-02T09:33:01;95050.82;;;9.12;78.69
79203;BME280;68630;42.748;23.278;2024-03-02T09:35:29;95057.77;;;9.03;79.98
79203;BME280;68630;42.748;23.278;2024-03-02T09:37:56;95057.61;;;9.20;79.66
79203;BME280;68630;42.748;23.278;2024-03-02T09:40:24;95059.09;;;9.03;80.04
79203;BME280;68630;42.748;23.278;2024-03-02T09:42:51;95063.28;;;9.06;80.19
79203;BME280;68630;42.748;23.278;2024-03-02T09:45:24;95065.00;;;9.01;80.30
79203;BME280;68630;42.748;23.278;2024-03-02T09:47:54;95057.59;;;9.10;80.22
79203;BME280;68630;42.748;23.278;2024-03-02T09:50:22;95058.03;;;9.15;80.33
79203;BME280;68630;42.748;23.278;2024-03-02T09:52:49;95054.62;;;9.04;80.80
79203;BME280;68630;42.748;23.278;2024-03-02T09:55:19;95058.34;;;9.07;80.89
79203;BME280;68630;42.748;23.278;2024-03-02T09:57:47;95059.88;;;9.25;80.55
79203;BME280;68630;42.748;23.278;2024-03-02T10:00:16;95060.75;;;9.35;79.60
79203;BME280;68630;42.748;23.278;2024-03-02T10:02:44;95057.95;;;9.52;79.74
79203;BME280;68630;42.748;23.278;2024-03-02T10:05:13;95061.60;;;9.61;79.62
79203;BME280;68630;42.748;23.278;2024-03-02T10:07:42;95061.54;;;9.66;78.60
79203;BME280;68630;42.748;23.278;2024-03-02T10:10:14;95058.84;;;9.47;78.73
79203;BME280;68630;42.748;23.278;2024-03-02T10:12:42;95056.42;;;9.59;79.00
79203;BME280;68630;42.748;23.278;2024-03-02T10:15:09;95058.28;;;9.68;78.81
79203;BME280;68630;42.748;23.278;2024-03-02T10:17:39;95049.31;;;9.69;78.32
79203;BME280;68630;42.748;23.278;2024-03-02T10:20:23;95059.31;;;9.71;79.00
79203;BME280;68630;42.748;23.278;2024-03-02T10:22:50;95055.86;;;9.55;79.25
79203;BME280;68630;42.748;23.278;2024-03-02T10:25:30;95050.75;;;9.33;79.09
79203;BME280;68630;42.748;23.278;2024-03-02T10:28:01;95054.45;;;9.51;78.43
79203;BME280;68630;42.748;23.278;2024-03-02T10:30:30;95051.44;;;9.50;79.42
79203;BME280;68630;42.748;23.278;2024-03-02T10:33:03;95055.16;;;9.53;78.89
79203;BME280;68630;42.748;23.278;2024-03-02T10:35:33;95055.16;;;9.79;78.04
79203;BME280;68630;42.748;23.278;2024-03-02T10:38:06;95052.49;;;9.88;76.10
79203;BME280;68630;42.748;23.278;2024-03-02T10:40:35;95053.13;;;9.86;76.82
79203;BME280;68630;42.748;23.278;2024-03-02T10:43:03;95046.05;;;9.81;78.20
79203;BME280;68630;42.748;23.278;2024-03-02T10:45:33;95035.12;;;9.65;77.63
79203;BME280;68630;42.748;23.278;2024-03-02T10:48:05;95048.02;;;9.54;79.18
79203;BME280;68630;42.748;23.278;2024-03-02T10:50:33;95043.59;;;9.39;79.68
79203;BME280;68630;42.748;23.278;2024-03-02T10:53:01;95047.98;;;9.60;79.94
79203;BME280;68630;42.748;23.278;2024-03-02T10:55:31;95033.73;;;9.70;78.88
79203;BME280;68630;42.748;23.278;2024-03-02T10:58:02;95034.92;;;9.72;77.32
79203;BME280;68630;42.748;23.278;2024-03-02T11:00:33;95031.57;;;9.70;78.52
79203;BME280;68630;42.748;23.278;2024-03-02T11:03:13;95042.60;;;9.65;78.12
79203;BME280;68630;42.748;23.278;2024-03-02T11:05:45;95037.09;;;9.72;79.24
79203;BME280;68630;42.748;23.278;2024-03-02T11:08:18;95037.78;;;9.65;78.25
79203;BME280;68630;42.748;23.278;2024-03-02T11:10:58;95035.09;;;9.80;78.41
79203;BME280;68630;42.748;23.278;2024-03-02T11:13:31;95036.41;;;9.90;77.51
79203;BME280;68630;42.748;23.278;2024-03-02T11:16:04;95032.03;;;10.04;75.61
79203;BME280;68630;42.748;23.278;2024-03-02T11:18:31;95031.55;;;10.15;75.98
79203;BME280;68630;42.748;23.278;2024-03-02T11:20:58;95031.10;;;10.19;75.15
79203;BME280;68630;42.748;23.278;2024-03-02T11:23:33;95024.54;;;10.23;75.82
79203;BME280;68630;42.748;23.278;2024-03-02T11:26:18;95022.94;;;10.26;74.91
79203;BME280;68630;42.748;23.278;2024-03-02T11:28:47;95026.98;;;10.30;75.19
79203;BME280;68630;42.748;23.278;2024-03-02T11:31:15;95027.20;;;10.23;74.77
79203;BME280;68630;42.748;23.278;2024-03-02T11:33:44;95023.49;;;10.30;74.27
79203;BME280;68630;42.748;23.278;2024-03-02T11:36:12;95020.28;;;10.46;74.40
79203;BME280;68630;42.748;23.278;2024-03-02T11:38:39;95018.36;;;10.62;74.00
79203;BME280;68630;42.748;23.278;2024-03-02T11:41:08;95017.66;;;10.70;73.51
79203;BME280;68630;42.748;23.278;2024-03-02T11:43:40;95015.09;;;10.54;73.88
79203;BME280;68630;42.748;23.278;2024-03-02T11:46:11;95015.55;;;10.63;73.79
79203;BME280;68630;42.748;23.278;2024-03-02T11:48:40;95018.44;;;10.66;73.05
79203;BME280;68630;42.748;23.278;2024-03-02T11:51:07;95020.50;;;10.72;72.55
79203;BME280;68630;42.748;23.278;2024-03-02T11:53:35;95023.89;;;10.88;72.52
79203;BME280;68630;42.748;23.278;2024-03-02T11:56:06;95020.61;;;10.90;72.18
79203;BME280;68630;42.748;23.278;2024-03-02T11:58:39;95017.83;;;10.82;71.98
79203;BME280;68630;42.748;23.278;2024-03-02T12:01:07;95018.88;;;10.85;72.82
79203;BME280;68630;42.748;23.278;2024-03-02T12:03:36;95020.77;;;10.79;72.15
79203;BME280;68630;42.748;23.278;2024-03-02T12:06:07;95014.27;;;10.67;72.57
79203;BME280;68630;42.748;23.278;2024-03-02T12:08:37;95022.77;;;10.57;73.24
79203;BME280;68630;42.748;23.278;2024-03-02T12:16:25;95015.78;;;10.56;73.86
79203;BME280;68630;42.748;23.278;2024-03-02T12:18:52;95019.82;;;10.60;74.02
79203;BME280;68630;42.748;23.278;2024-03-02T12:21:23;95021.11;;;10.56;74.32
79203;BME280;68630;42.748;23.278;2024-03-02T12:24:01;95018.27;;;10.67;73.60
79203;BME280;68630;42.748;23.278;2024-03-02T12:26:31;95017.30;;;10.68;73.34
79203;BME280;68630;42.748;23.278;2024-03-02T12:29:02;95022.75;;;10.77;72.42
79203;BME280;68630;42.748;23.278;2024-03-02T12:31:35;95020.91;;;10.77;72.39
79203;BME280;68630;42.748;23.278;2024-03-02T12:34:04;95014.86;;;10.61;72.19
79203;BME280;68630;42.748;23.278;2024-03-02T12:36:39;95015.14;;;10.58;72.89
79203;BME280;68630;42.748;23.278;2024-03-02T12:39:10;95015.37;;;10.51;73.10
79203;BME280;68630;42.748;23.278;2024-03-02T12:41:38;95016.01;;;10.49;72.46
79203;BME280;68630;42.748;23.278;2024-03-02T12:44:08;95021.80;;;10.58;72.31
79203;BME280;68630;42.748;23.278;2024-03-02T12:46:38;95012.16;;;10.47;72.78
79203;BME280;68630;42.748;23.278;2024-03-02T12:49:10;95018.12;;;10.45;72.43
79203;BME280;68630;42.748;23.278;2024-03-02T12:51:42;95027.02;;;10.40;73.01
79203;BME280;68630;42.748;23.278;2024-03-02T12:54:09;95020.55;;;10.43;73.18
79203;BME280;68630;42.748;23.278;2024-03-02T12:56:38;95020.00;;;10.39;72.69
79203;BME280;68630;42.748;23.278;2024-03-02T12:59:17;95025.17;;;10.11;74.10
79203;BME280;68630;42.748;23.278;2024-03-02T13:01:52;95016.14;;;10.18;73.89
79203;BME280;68630;42.748;23.278;2024-03-02T13:04:25;95022.57;;;10.25;73.66
79203;BME280;68630;42.748;23.278;2024-03-02T13:06:56;95016.69;;;10.12;74.49
79203;BME280;68630;42.748;23.278;2024-03-02T13:09:31;95023.20;;;10.13;73.97
79203;BME280;68630;42.748;23.278;2024-03-02T13:12:01;95021.31;;;10.10;74.23
79203;BME280;68630;42.748;23.278;2024-03-02T13:14:32;95022.23;;;10.15;74.38
79203;BME280;68630;42.748;23.278;2024-03-02T13:17:03;95022.23;;;10.15;73.62
79203;BME280;68630;42.748;23.278;2024-03-02T13:19:35;95024.95;;;10.19;73.37
79203;BME280;68630;42.748;23.278;2024-03-02T13:22:08;95029.30;;;10.10;73.40
79203;BME280;68630;42.748;23.278;2024-03-02T13:24:40;94979.74;;;9.70;74.40